TimeCDT,TemperatureF,Dew PointF,Humidity,Sea Level PressureIn,VisibilityMPH,Wind Direction,Wind SpeedMPH,Gust SpeedMPH,PrecipitationIn,Events,Conditions,WindDirDegrees,DateUTC
12:15 AM,57.6,43.0,58,30.27,10.0,North,5.8,-,N/A,,Clear,10,2013-05-24 05:15:00
12:35 AM,56.7,43.2,61,30.27,10.0,North,5.8,-,N/A,,Clear,10,2013-05-24 05:35:00
12:55 AM,56.3,43.2,61,30.28,10.0,NNE,5.8,-,N/A,,Clear,20,2013-05-24 05:55:00
1:15 AM,56.1,43.2,62,30.29,10.0,NE,4.6,-,N/A,,Clear,40,2013-05-24 06:15:00
1:35 AM,55.0,43.0,64,30.30,10.0,NE,4.6,-,N/A,,Clear,40,2013-05-24 06:35:00
1:55 AM,54.9,43.7,66,30.30,10.0,ENE,5.8,-,N/A,,Clear,60,2013-05-24 06:55:00
2:15 AM,54.5,44.2,68,30.30,10.0,ENE,5.8,-,N/A,,Clear,70,2013-05-24 07:15:00
2:35 AM,53.1,44.1,71,30.30,10.0,East,5.8,-,N/A,,Clear,100,2013-05-24 07:35:00
2:55 AM,53.1,45.0,74,30.30,10.0,East,6.9,-,N/A,,Clear,80,2013-05-24 07:55:00
3:15 AM,52.9,45.3,75,30.30,10.0,East,5.8,-,N/A,,Clear,90,2013-05-24 08:15:00
3:35 AM,52.5,45.5,77,30.31,10.0,East,4.6,-,N/A,,Clear,90,2013-05-24 08:35:00
3:55 AM,51.4,45.1,79,30.32,10.0,Calm,Calm,-,N/A,,Clear,0,2013-05-24 08:55:00
4:15 AM,51.8,45.7,80,30.31,10.0,East,3.5,-,N/A,,Clear,100,2013-05-24 09:15:00
4:35 AM,51.4,45.7,81,30.32,7.0,East,3.5,-,N/A,,Clear,80,2013-05-24 09:35:00
4:55 AM,51.3,45.5,81,30.34,7.0,East,3.5,-,N/A,,Clear,80,2013-05-24 09:55:00
5:15 AM,51.1,45.5,81,30.35,7.0,Calm,Calm,-,N/A,,Clear,0,2013-05-24 10:15:00
5:35 AM,50.9,45.5,82,30.36,5.0,Calm,Calm,-,N/A,,Haze,0,2013-05-24 10:35:00
5:55 AM,50.5,45.5,83,30.37,2.5,Calm,Calm,-,N/A,,Haze,0,2013-05-24 10:55:00
6:15 AM,50.9,45.7,82,30.38,2.0,Calm,Calm,-,N/A,,Haze,0,2013-05-24 11:15:00
6:35 AM,51.8,46.6,82,30.39,4.0,ENE,4.6,-,N/A,,Haze,70,2013-05-24 11:35:00
6:55 AM,53.1,47.3,81,30.40,4.0,East,9.2,-,N/A,,Haze,80,2013-05-24 11:55:00
7:15 AM,53.6,47.3,79,30.40,4.0,East,13.8,-,N/A,,Haze,80,2013-05-24 12:15:00
7:35 AM,53.4,46.9,79,30.41,3.0,East,11.5,-,N/A,,Haze,90,2013-05-24 12:35:00
7:55 AM,52.9,45.9,77,30.41,3.0,East,12.7,-,N/A,,Haze,90,2013-05-24 12:55:00
8:15 AM,54.0,46.2,75,30.42,4.0,ESE,12.7,-,N/A,,Haze,110,2013-05-24 13:15:00
8:35 AM,54.0,45.5,73,30.43,4.0,ESE,12.7,-,N/A,,Haze,110,2013-05-24 13:35:00
8:55 AM,55.6,45.1,68,30.43,5.0,ESE,8.1,-,N/A,,Haze,110,2013-05-24 13:55:00
9:15 AM,56.7,44.1,63,30.43,7.0,SE,6.9,-,N/A,,Mostly Cloudy,130,2013-05-24 14:15:00
9:35 AM,59.4,41.2,51,30.42,10.0,ESE,5.8,-,N/A,,Scattered Clouds,110,2013-05-24 14:35:00
9:55 AM,60.6,40.1,47,30.43,10.0,SSE,8.1,-,N/A,,Clear,150,2013-05-24 14:55:00
10:15 AM,61.5,38.5,43,30.43,10.0,ESE,6.9,-,N/A,,Clear,120,2013-05-24 15:15:00
10:35 AM,61.3,40.1,46,30.42,10.0,SE,4.6,-,N/A,,Clear,130,2013-05-24 15:35:00
10:55 AM,62.4,38.7,41,30.42,10.0,SE,6.9,-,N/A,,Clear,140,2013-05-24 15:55:00
11:15 AM,63.3,37.0,38,30.43,10.0,SE,6.9,-,N/A,,Clear,130,2013-05-24 16:15:00
11:35 AM,64.0,38.1,38,30.42,10.0,ESE,5.8,-,N/A,,Clear,110,2013-05-24 16:35:00
11:55 AM,65.8,35.8,33,30.41,10.0,SE,6.9,-,N/A,,Clear,140,2013-05-24 16:55:00
12:15 PM,66.7,33.3,29,30.40,10.0,ESE,4.6,-,N/A,,Clear,120,2013-05-24 17:15:00
12:35 PM,67.3,32.2,27,30.39,10.0,ESE,9.2,-,N/A,,Clear,110,2013-05-24 17:35:00
12:55 PM,68.0,31.8,26,30.38,10.0,ESE,8.1,-,N/A,,Clear,110,2013-05-24 17:55:00
1:15 PM,69.1,28.8,22,30.38,10.0,East,10.4,-,N/A,,Clear,100,2013-05-24 18:15:00
1:35 PM,69.6,29.3,22,30.37,10.0,SE,10.4,17.3,N/A,,Clear,140,2013-05-24 18:35:00
1:55 PM,69.8,28.6,22,30.37,10.0,ESE,10.4,18.4,N/A,,Clear,120,2013-05-24 18:55:00
2:15 PM,70.7,28.4,21,30.36,10.0,SE,10.4,18.4,N/A,,Clear,140,2013-05-24 19:15:00
2:35 PM,71.1,27.1,19,30.35,10.0,SSE,11.5,-,N/A,,Clear,150,2013-05-24 19:35:00
2:55 PM,71.6,29.3,21,30.34,10.0,SSE,12.7,17.3,N/A,,Clear,150,2013-05-24 19:55:00
3:15 PM,71.6,28.4,20,30.34,10.0,South,11.5,16.1,N/A,,Clear,180,2013-05-24 20:15:00
3:35 PM,72.0,25.3,18,30.33,10.0,South,10.4,-,N/A,,Clear,170,2013-05-24 20:35:00
3:55 PM,72.9,28.2,19,30.32,10.0,SSE,10.4,-,N/A,,Clear,150,2013-05-24 20:55:00
4:15 PM,73.4,27.1,18,30.31,10.0,SSE,13.8,-,N/A,,Clear,150,2013-05-24 21:15:00
4:35 PM,73.4,25.0,16,30.31,10.0,SE,9.2,-,N/A,,Clear,140,2013-05-24 21:35:00
4:55 PM,73.4,21.0,14,30.30,10.0,ESE,10.4,-,N/A,,Clear,120,2013-05-24 21:55:00
5:15 PM,73.6,22.8,15,30.28,10.0,SE,9.2,-,N/A,,Clear,140,2013-05-24 22:15:00
5:35 PM,73.4,22.6,15,30.28,10.0,SE,11.5,-,N/A,,Clear,130,2013-05-24 22:35:00
5:55 PM,73.4,26.8,18,30.27,10.0,SSE,11.5,-,N/A,,Clear,160,2013-05-24 22:55:00
6:15 PM,73.2,26.4,18,30.26,10.0,SE,10.4,16.1,N/A,,Clear,130,2013-05-24 23:15:00
6:35 PM,72.9,27.5,19,30.26,10.0,SSE,10.4,-,N/A,,Clear,150,2013-05-24 23:35:00
6:55 PM,72.3,26.4,18,30.26,10.0,SSE,9.2,-,N/A,,Clear,160,2013-05-24 23:55:00
7:15 PM,71.6,29.1,21,30.27,10.0,SSE,6.9,-,N/A,,Clear,150,2013-05-25 00:15:00
7:35 PM,70.7,31.3,23,30.27,10.0,SSE,6.9,-,N/A,,Clear,160,2013-05-25 00:35:00
7:55 PM,69.1,34.5,28,30.28,10.0,SSE,4.6,-,N/A,,Clear,150,2013-05-25 00:55:00
8:15 PM,65.8,37.8,36,30.27,10.0,SSE,5.8,-,N/A,,Clear,160,2013-05-25 01:15:00
8:35 PM,63.9,39.2,40,30.27,10.0,SSE,4.6,-,N/A,,Clear,150,2013-05-25 01:35:00
8:55 PM,63.1,39.4,42,30.27,10.0,SE,5.8,-,N/A,,Clear,130,2013-05-25 01:55:00
9:15 PM,62.4,39.4,43,30.27,10.0,ESE,5.8,-,N/A,,Clear,120,2013-05-25 02:15:00
9:35 PM,62.1,40.3,45,30.27,10.0,ESE,6.9,-,N/A,,Clear,110,2013-05-25 02:35:00
9:55 PM,62.8,40.1,43,30.28,10.0,ESE,9.2,-,N/A,,Clear,110,2013-05-25 02:55:00
10:15 PM,63.7,38.1,39,30.32,10.0,ENE,3.5,-,N/A,,Clear,60,2013-05-25 03:15:00
10:35 PM,64.0,37.4,37,30.32,10.0,ENE,3.5,-,N/A,,Clear,60,2013-05-25 03:35:00
10:55 PM,62.8,40.3,44,30.31,10.0,East,5.8,-,N/A,,Clear,100,2013-05-25 03:55:00
11:15 PM,63.1,37.9,39,30.29,10.0,ESE,9.2,-,N/A,,Scattered Clouds,120,2013-05-25 04:15:00
11:35 PM,63.5,37.4,38,30.26,10.0,SE,12.7,-,N/A,,Mostly Cloudy,140,2013-05-25 04:35:00
11:55 PM,63.7,36.7,37,30.22,10.0,ESE,15.0,19.6,N/A,,Mostly Cloudy,120,2013-05-25 04:55:00